Time;durP1;ratioP1;P1;durP2;ratioP2;P2;SDS_P1;SDS_P2;PMS_P1;PMS_P2;Temp;Humidity;BMP_temperature;BMP_pressure;BME280_temperature;BME280_humidity;BME280_pressure;Samples;Min_cycle;Max_cycle;Signal;HPM_P1;HPM_P2
2022/03/27 00:01:30;;;;;;;8.82;7.93;;;8.30;99.90;;;;;;5087514;28;20044;-81
2022/03/27 00:03:56;;;;;;;8.98;8.07;;;8.20;99.90;;;;;;5089093;28;20063;-81
2022/03/27 00:06:22;;;;;;;9.77;7.72;;;8.20;99.90;;;;;;5090486;28;20044;-81
2022/03/27 00:08:47;;;;;;;8.85;7.95;;;8.10;99.90;;;;;;5070499;28;20519;-81
2022/03/27 00:11:25;;;;;;;9.48;7.88;;;8.10;99.90;;;;;;5070815;28;20040;-81
2022/03/27 00:13:59;;;;;;;8.63;7.72;;;8.10;99.90;;;;;;5089887;28;20036;-81
2022/03/27 00:16:26;;;;;;;11.75;8.50;;;8.10;99.90;;;;;;5090749;28;20052;-81
2022/03/27 00:18:52;;;;;;;10.57;8.27;;;8.10;99.90;;;;;;5069399;28;20070;-81
2022/03/27 00:21:20;;;;;;;10.35;8.05;;;8.00;99.90;;;;;;5090278;28;20044;-82
2022/03/27 00:23:47;;;;;;;10.75;8.30;;;8.00;99.90;;;;;;5081290;28;20073;-81
2022/03/27 00:26:13;;;;;;;9.95;8.50;;;8.00;99.90;;;;;;5067694;28;20094;-81
2022/03/27 00:28:39;;;;;;;11.75;9.27;;;7.90;99.90;;;;;;5069241;28;20043;-81
2022/03/27 00:31:06;;;;;;;12.50;9.98;;;7.90;99.90;;;;;;5069461;28;20047;-81
2022/03/27 00:33:33;;;;;;;12.18;10.52;;;7.80;99.90;;;;;;5067282;28;20114;-81
2022/03/27 00:36:03;;;;;;;13.37;10.30;;;7.70;99.90;;;;;;5087685;28;20490;-81
2022/03/27 00:38:29;;;;;;;10.88;9.63;;;7.70;99.90;;;;;;5089368;28;20485;-81
2022/03/27 00:40:56;;;;;;;12.57;10.00;;;7.70;99.90;;;;;;5086996;28;20122;-81
2022/03/27 00:43:23;;;;;;;13.73;11.27;;;7.60;99.90;;;;;;5088349;28;20123;-81
2022/03/27 00:45:49;;;;;;;12.10;9.50;;;7.60;99.90;;;;;;5087495;28;20048;-81
2022/03/27 00:48:17;;;;;;;14.48;9.30;;;7.50;99.90;;;;;;5087553;28;20303;-81
2022/03/27 00:50:43;;;;;;;12.80;9.95;;;7.50;99.90;;;;;;5089037;28;20036;-81
2022/03/27 00:53:09;;;;;;;14.10;9.85;;;7.40;99.90;;;;;;5085518;28;20048;-81
2022/03/27 00:55:35;;;;;;;13.00;9.20;;;7.40;99.90;;;;;;5089550;28;20055;-81
2022/03/27 00:58:02;;;;;;;13.65;10.10;;;7.40;99.90;;;;;;5089038;28;20036;-81
2022/03/27 01:00:41;;;;;;;12.50;9.32;;;7.30;99.90;;;;;;5069394;28;20554;-82
2022/03/27 01:03:09;;;;;;;15.63;10.27;;;7.30;99.90;;;;;;5086400;28;20114;-82
2022/03/27 01:05:35;;;;;;;17.40;10.13;;;7.20;99.90;;;;;;5070205;28;20052;-82
2022/03/27 01:08:05;;;;;;;14.65;10.00;;;7.20;99.90;;;;;;5066290;28;20039;-82
2022/03/27 01:10:31;;;;;;;14.23;10.05;;;7.20;99.90;;;;;;5088756;28;20635;-82
2022/03/27 01:12:57;;;;;;;14.98;9.82;;;7.20;99.90;;;;;;5087039;28;20050;-81
2022/03/27 01:15:39;;;;;;;12.07;9.90;;;7.10;99.90;;;;;;5088106;28;20036;-81
2022/03/27 01:18:06;;;;;;;14.57;9.63;;;7.20;99.90;;;;;;5084287;28;20135;-82
2022/03/27 01:20:34;;;;;;;15.38;10.35;;;7.10;99.90;;;;;;5071256;28;20418;-82
2022/03/27 01:22:59;;;;;;;13.77;9.90;;;7.10;99.90;;;;;;5066964;28;20360;-82
2022/03/27 01:25:26;;;;;;;15.65;9.68;;;7.10;99.90;;;;;;5089616;28;20047;-81
2022/03/27 01:27:51;;;;;;;15.10;9.23;;;7.10;99.90;;;;;;5069441;28;20119;-81
2022/03/27 01:30:17;;;;;;;15.00;9.40;;;7.10;99.90;;;;;;5070568;28;20136;-82
2022/03/27 01:32:43;;;;;;;14.63;9.27;;;7.10;99.90;;;;;;5084470;28;20063;-81
2022/03/27 01:35:12;;;;;;;13.35;9.55;;;7.10;99.90;;;;;;5084138;28;20512;-81
2022/03/27 01:37:38;;;;;;;13.30;9.07;;;7.10;99.90;;;;;;5066302;28;20495;-82
2022/03/27 01:40:05;;;;;;;14.52;8.98;;;7.00;99.90;;;;;;5087654;28;20039;-81
2022/03/27 01:42:30;;;;;;;16.33;9.37;;;7.00;99.90;;;;;;5068916;28;20044;-81
2022/03/27 01:44:56;;;;;;;17.80;9.45;;;7.00;99.90;;;;;;5067129;28;20301;-82
2022/03/27 01:47:21;;;;;;;14.88;9.35;;;6.90;99.90;;;;;;5088265;28;20466;-81
2022/03/27 01:49:47;;;;;;;16.85;10.20;;;6.90;99.90;;;;;;5087506;28;20035;-82
2022/03/27 01:52:15;;;;;;;17.05;10.75;;;6.90;99.90;;;;;;5087477;28;20032;-82
2022/03/27 01:54:41;;;;;;;21.27;11.80;;;6.80;99.90;;;;;;5066281;28;20047;-82
2022/03/27 01:57:06;;;;;;;17.10;12.05;;;6.80;99.90;;;;;;5065548;28;20072;-82
2022/03/27 01:59:33;;;;;;;19.05;11.32;;;6.80;99.90;;;;;;5085636;28;20663;-83
2022/03/27 02:01:59;;;;;;;15.35;11.02;;;6.70;99.90;;;;;;5067786;28;20104;-83
2022/03/27 02:04:25;;;;;;;16.80;12.05;;;6.80;99.90;;;;;;5087948;28;20445;-83
2022/03/27 02:06:50;;;;;;;18.45;12.38;;;6.80;99.90;;;;;;5081647;28;20470;-81
2022/03/27 02:09:16;;;;;;;19.65;13.25;;;6.80;99.90;;;;;;5087975;28;20052;-82
2022/03/27 02:11:42;;;;;;;20.48;13.85;;;6.80;99.90;;;;;;5084892;28;20096;-83
2022/03/27 02:14:09;;;;;;;20.38;14.20;;;6.80;99.90;;;;;;5068745;28;20096;-84
2022/03/27 02:16:35;;;;;;;19.48;13.45;;;6.80;99.90;;;;;;5067912;28;20697;-83
2022/03/27 02:19:01;;;;;;;18.42;13.65;;;6.80;99.90;;;;;;5064952;28;20066;-83
2022/03/27 02:21:26;;;;;;;17.92;13.18;;;6.80;99.90;;;;;;5086234;28;20040;-83
2022/03/27 02:23:52;;;;;;;19.73;14.80;;;6.80;99.90;;;;;;5068585;28;20044;-83
2022/03/27 02:26:17;;;;;;;19.13;14.07;;;6.70;99.90;;;;;;5086165;28;20104;-84
2022/03/27 02:28:43;;;;;;;18.42;14.32;;;6.70;99.90;;;;;;5068500;28;20044;-83
2022/03/27 02:31:09;;;;;;;19.25;15.45;;;6.70;99.90;;;;;;5081688;28;20054;-84
2022/03/27 02:33:35;;;;;;;19.23;15.65;;;6.60;99.90;;;;;;5067178;28;20441;-84
2022/03/27 02:36:04;;;;;;;20.67;16.08;;;6.60;99.90;;;;;;5068218;28;20048;-84
2022/03/27 02:38:30;;;;;;;24.60;16.65;;;6.60;99.90;;;;;;5080540;28;20040;-84
2022/03/27 02:40:56;;;;;;;19.58;16.67;;;6.50;99.90;;;;;;5084339;28;20390;-84
2022/03/27 02:43:21;;;;;;;22.00;16.98;;;6.50;99.90;;;;;;5069690;28;20047;-84
2022/03/27 02:45:48;;;;;;;20.55;16.65;;;6.50;99.90;;;;;;5084132;28;20040;-83
2022/03/27 02:48:13;;;;;;;23.30;17.75;;;6.50;99.90;;;;;;5083953;28;20491;-83
2022/03/27 02:50:43;;;;;;;25.73;18.27;;;6.50;99.90;;;;;;5065051;28;20058;-83
2022/03/27 02:53:09;;;;;;;22.13;16.98;;;6.40;99.90;;;;;;5085260;28;20143;-84
2022/03/27 02:55:34;;;;;;;22.27;17.63;;;6.40;99.90;;;;;;5073191;28;20127;-84
2022/03/27 02:58:01;;;;;;;25.23;18.13;;;6.40;99.90;;;;;;5069604;28;20467;-83
2022/03/27 03:00:27;;;;;;;25.38;18.45;;;6.40;99.90;;;;;;5090531;28;20032;-83
2022/03/27 03:02:54;;;;;;;27.08;18.83;;;6.40;99.90;;;;;;5094096;28;20139;-84
2022/03/27 03:05:20;;;;;;;28.58;18.73;;;6.30;99.90;;;;;;5095290;28;20048;-80
2022/03/27 03:07:46;;;;;;;26.92;18.52;;;6.30;99.90;;;;;;5096746;28;20043;-82
2022/03/27 03:10:14;;;;;;;25.83;18.88;;;6.30;99.90;;;;;;5095740;28;20044;-82
2022/03/27 03:12:40;;;;;;;27.63;19.02;;;6.30;99.90;;;;;;5075868;28;20113;-83
2022/03/27 03:15:07;;;;;;;27.63;18.60;;;6.40;99.90;;;;;;5094468;28;20035;-82
2022/03/27 03:17:33;;;;;;;26.27;18.53;;;6.30;99.90;;;;;;5075195;28;20036;-83
2022/03/27 03:19:59;;;;;;;23.05;17.55;;;6.30;99.90;;;;;;5048255;28;20307;-84
2022/03/27 03:22:26;;;;;;;24.92;17.13;;;6.30;99.90;;;;;;5050273;28;20492;-83
2022/03/27 03:24:52;;;;;;;26.83;16.52;;;6.30;99.90;;;;;;5049294;28;20072;-84
2022/03/27 03:27:18;;;;;;;25.50;17.52;;;6.30;99.90;;;;;;5050923;28;20653;-84
2022/03/27 03:29:44;;;;;;;25.25;16.50;;;6.30;99.90;;;;;;5048148;28;20099;-83
2022/03/27 03:32:09;;;;;;;25.88;16.40;;;6.30;99.90;;;;;;5049130;28;20094;-83
2022/03/27 03:34:35;;;;;;;22.98;15.15;;;6.30;99.90;;;;;;5049635;28;20135;-84
2022/03/27 03:37:04;;;;;;;23.95;15.40;;;6.30;99.90;;;;;;5043694;28;20113;-83
2022/03/27 03:39:30;;;;;;;24.65;13.70;;;6.30;99.90;;;;;;5039722;28;20056;-84
2022/03/27 03:41:55;;;;;;;20.92;14.55;;;6.30;99.90;;;;;;5046433;28;20037;-84
2022/03/27 03:44:21;;;;;;;23.60;14.93;;;6.20;99.90;;;;;;5051712;28;20447;-84
2022/03/27 03:46:48;;;;;;;22.60;14.13;;;6.20;99.90;;;;;;5050337;28;20528;-84
2022/03/27 03:49:14;;;;;;;22.35;13.05;;;6.20;99.90;;;;;;5048525;28;20044;-83
2022/03/27 03:51:40;;;;;;;22.17;12.93;;;6.20;99.90;;;;;;5047806;28;20047;-83
2022/03/27 03:54:09;;;;;;;25.10;15.45;;;6.10;99.90;;;;;;5047962;28;20033;-83
2022/03/27 03:56:36;;;;;;;22.40;15.40;;;6.10;99.90;;;;;;5044478;28;20045;-84
2022/03/27 03:59:02;;;;;;;22.00;14.10;;;6.10;99.90;;;;;;5047574;28;20124;-83
2022/03/27 04:01:27;;;;;;;20.73;14.25;;;6.10;99.90;;;;;;5046862;28;20125;-84
2022/03/27 04:03:53;;;;;;;19.60;12.98;;;6.10;99.90;;;;;;5047985;28;20037;-84
2022/03/27 04:06:19;;;;;;;22.17;14.95;;;6.10;99.90;;;;;;5049125;28;20568;-84
2022/03/27 04:08:46;;;;;;;23.53;14.43;;;6.00;99.90;;;;;;5048260;28;20098;-84
2022/03/27 04:11:17;;;;;;;21.30;14.53;;;6.00;99.90;;;;;;5046087;28;20049;-85
2022/03/27 04:13:43;;;;;;;23.35;14.90;;;6.00;99.90;;;;;;5047521;28;20049;-82
2022/03/27 04:16:10;;;;;;;22.63;14.60;;;6.00;99.90;;;;;;5049034;28;20056;-82
2022/03/27 04:18:36;;;;;;;24.97;15.33;;;6.00;99.90;;;;;;5061727;28;20117;-83
2022/03/27 04:21:09;;;;;;;20.52;14.18;;;5.90;99.90;;;;;;5071193;28;20558;-84
2022/03/27 04:23:35;;;;;;;23.35;14.18;;;6.00;99.90;;;;;;5087624;28;20166;-84
2022/03/27 04:26:02;;;;;;;25.95;15.13;;;6.00;99.90;;;;;;5068856;28;20051;-84
2022/03/27 04:28:28;;;;;;;20.03;13.67;;;6.00;99.90;;;;;;5071615;28;20125;-85
2022/03/27 04:30:53;;;;;;;23.52;14.82;;;5.90;99.90;;;;;;5072178;28;20345;-84
2022/03/27 04:33:19;;;;;;;23.70;13.88;;;5.90;99.90;;;;;;5089234;28;20044;-84
2022/03/27 04:35:48;;;;;;;22.92;14.07;;;6.00;99.90;;;;;;5090456;28;20043;-84
2022/03/27 04:38:14;;;;;;;20.77;13.85;;;6.00;99.90;;;;;;5086058;28;20052;-83
2022/03/27 04:40:43;;;;;;;20.70;14.05;;;5.90;99.90;;;;;;5089085;28;20052;-85
2022/03/27 04:43:09;;;;;;;22.83;13.88;;;6.00;99.90;;;;;;5090226;28;20043;-84
2022/03/27 04:45:34;;;;;;;27.42;14.35;;;6.00;99.90;;;;;;5071020;28;20051;-84
2022/03/27 04:48:00;;;;;;;23.90;14.75;;;6.00;99.90;;;;;;5070131;28;20040;-84
2022/03/27 04:50:26;;;;;;;23.58;13.93;;;5.90;99.90;;;;;;5088604;28;20096;-84
2022/03/27 04:52:52;;;;;;;22.33;14.30;;;5.90;99.90;;;;;;5087432;28;20047;-84
2022/03/27 04:55:17;;;;;;;21.33;14.20;;;5.90;99.90;;;;;;5071887;28;20044;-84
2022/03/27 04:57:43;;;;;;;25.88;14.98;;;5.90;99.90;;;;;;5069405;28;20465;-85
2022/03/27 05:00:14;;;;;;;28.27;15.45;;;5.90;99.90;;;;;;5087197;28;20054;-84
2022/03/27 05:02:41;;;;;;;21.33;15.32;;;5.90;99.90;;;;;;5068638;28;20078;-84
2022/03/27 05:05:10;;;;;;;20.27;14.17;;;5.90;99.90;;;;;;5068516;28;20036;-84
2022/03/27 05:07:37;;;;;;;22.85;14.38;;;5.90;99.90;;;;;;5087238;28;20122;-83
2022/03/27 05:10:04;;;;;;;20.83;14.48;;;5.90;99.90;;;;;;5066226;28;20094;-84
2022/03/27 05:12:30;;;;;;;22.15;13.63;;;5.90;99.90;;;;;;5089136;28;20047;-84
2022/03/27 05:14:56;;;;;;;20.98;13.73;;;5.80;99.90;;;;;;5087901;28;20048;-84
2022/03/27 05:17:21;;;;;;;21.30;14.48;;;5.80;99.90;;;;;;5069538;28;20071;-84
2022/03/27 05:19:47;;;;;;;24.80;14.43;;;5.80;99.90;;;;;;5088429;28;20071;-84
2022/03/27 05:22:13;;;;;;;22.70;13.73;;;5.80;99.90;;;;;;5067068;28;20040;-84
2022/03/27 05:24:38;;;;;;;23.58;14.20;;;5.80;99.90;;;;;;5082156;28;20515;-84
2022/03/27 05:27:04;;;;;;;24.10;14.80;;;5.80;99.90;;;;;;5070566;28;20124;-84
2022/03/27 05:29:30;;;;;;;21.25;12.82;;;5.80;99.90;;;;;;5087188;28;20387;-83
2022/03/27 05:31:57;;;;;;;22.85;13.30;;;5.90;99.90;;;;;;5090615;28;20067;-84
2022/03/27 05:34:23;;;;;;;24.63;13.05;;;5.90;99.90;;;;;;5068087;28;20036;-85
2022/03/27 05:36:49;;;;;;;30.88;13.57;;;6.00;99.90;;;;;;5067301;28;20561;-84
2022/03/27 05:39:14;;;;;;;25.45;12.40;;;6.00;99.90;;;;;;5088344;28;20032;-85
2022/03/27 05:41:40;;;;;;;30.13;12.85;;;6.00;99.90;;;;;;5087744;28;20046;-84
2022/03/27 05:44:06;;;;;;;28.83;12.63;;;6.10;99.90;;;;;;5089064;28;20491;-85
2022/03/27 05:46:31;;;;;;;33.92;11.65;;;6.10;99.90;;;;;;5088291;28;20032;-84
2022/03/27 05:48:57;;;;;;;33.95;12.63;;;6.10;99.90;;;;;;5065801;28;20075;-84
2022/03/27 05:51:22;;;;;;;30.70;12.77;;;6.10;99.90;;;;;;5070578;28;20043;-85
2022/03/27 05:53:48;;;;;;;33.17;12.27;;;6.20;99.90;;;;;;5070365;28;20056;-84
2022/03/27 05:56:14;;;;;;;33.33;12.82;;;6.20;99.90;;;;;;5070510;28;20044;-84
2022/03/27 05:58:40;;;;;;;38.65;14.13;;;6.20;99.90;;;;;;5068099;28;20135;-84
2022/03/27 06:01:06;;;;;;;29.25;13.18;;;6.30;99.90;;;;;;5085748;28;20032;-85
2022/03/27 06:03:32;;;;;;;34.80;13.68;;;6.30;99.90;;;;;;5086797;28;20044;-83
2022/03/27 06:05:58;;;;;;;33.08;13.23;;;6.30;99.90;;;;;;5070534;28;20044;-82
2022/03/27 06:08:24;;;;;;;38.88;15.00;;;6.30;99.90;;;;;;5085460;28;20051;-82
2022/03/27 06:10:49;;;;;;;36.03;16.63;;;6.40;99.90;;;;;;5063535;28;20052;-82
2022/03/27 06:13:17;;;;;;;39.42;17.52;;;6.40;99.90;;;;;;5069047;28;20077;-82
2022/03/27 06:15:42;;;;;;;40.13;18.23;;;6.40;99.90;;;;;;5086377;28;20475;-82
2022/03/27 06:18:11;;;;;;;50.22;21.38;;;6.40;99.90;;;;;;5067652;28;20052;-83
2022/03/27 06:20:38;;;;;;;45.33;22.38;;;6.40;99.90;;;;;;5084057;28;20044;-83
2022/03/27 06:23:06;;;;;;;45.25;21.52;;;6.40;99.90;;;;;;5087721;28;20044;-83
2022/03/27 06:25:35;;;;;;;48.08;21.98;;;6.40;99.90;;;;;;5086364;28;20093;-83
2022/03/27 06:28:01;;;;;;;47.15;21.48;;;6.40;99.90;;;;;;5088014;28;20036;-82
2022/03/27 06:30:31;;;;;;;51.65;21.13;;;6.40;99.90;;;;;;5090408;28;20040;-82
2022/03/27 06:32:57;;;;;;;46.05;19.83;;;6.40;99.90;;;;;;5085578;28;20384;-83
2022/03/27 06:35:23;;;;;;;49.17;20.63;;;6.40;99.90;;;;;;5072753;28;20055;-83
2022/03/27 06:37:51;;;;;;;46.83;17.88;;;6.40;99.90;;;;;;5072390;28;20052;-83
2022/03/27 06:40:17;;;;;;;46.88;17.40;;;6.40;99.90;;;;;;5074222;28;20075;-83
2022/03/27 06:42:44;;;;;;;51.92;17.55;;;6.40;99.90;;;;;;5073209;28;20040;-83
2022/03/27 06:45:15;;;;;;;45.05;16.83;;;6.40;99.90;;;;;;5090461;28;20499;-83
2022/03/27 06:47:43;;;;;;;46.35;17.88;;;6.50;99.90;;;;;;5088442;28;20071;-83
2022/03/27 06:50:09;;;;;;;46.58;17.17;;;6.50;99.90;;;;;;5091533;28;20449;-77
2022/03/27 06:52:36;;;;;;;43.03;13.40;;;6.50;99.90;;;;;;5091710;28;20044;-84
2022/03/27 06:55:03;;;;;;;42.08;14.75;;;6.60;99.90;;;;;;5069590;28;20086;-80
2022/03/27 06:57:29;;;;;;;40.63;15.13;;;6.60;99.90;;;;;;5090948;28;20048;-76
2022/03/27 07:05:23;;;;;;;39.50;14.85;;;6.70;99.90;;;;;;5087277;28;20044;-84
2022/03/27 07:07:49;;;;;;;41.75;13.50;;;6.70;99.90;;;;;;5091348;28;20681;-79
2022/03/27 07:10:16;;;;;;;43.38;14.43;;;6.70;99.90;;;;;;5093848;28;20123;-89
2022/03/27 07:12:42;;;;;;;40.72;14.60;;;6.70;99.90;;;;;;5071808;28;20047;-84
2022/03/27 07:15:09;;;;;;;40.08;14.50;;;6.80;99.90;;;;;;5089720;28;20136;-85
2022/03/27 07:17:49;;;;;;;35.33;13.63;;;6.80;99.90;;;;;;5092375;28;20048;-89
2022/03/27 07:20:24;;;;;;;41.70;13.82;;;6.80;99.90;;;;;;5091484;28;20374;-81
2022/03/27 07:22:50;;;;;;;32.53;13.30;;;6.80;99.90;;;;;;5075459;28;20059;-84
2022/03/27 07:25:16;;;;;;;42.25;14.70;;;6.80;99.90;;;;;;5074851;28;20040;-82
2022/03/27 07:27:42;;;;;;;38.78;14.30;;;6.90;99.90;;;;;;5092043;28;20443;-81
2022/03/27 07:30:08;;;;;;;39.20;12.93;;;7.00;99.90;;;;;;5094104;28;20061;-84
2022/03/27 07:32:34;;;;;;;46.80;14.63;;;7.00;99.90;;;;;;5115251;28;20118;-87
2022/03/27 07:35:00;;;;;;;49.35;13.57;;;7.00;99.90;;;;;;5096683;28;20301;-81
2022/03/27 07:37:26;;;;;;;40.97;13.90;;;7.10;99.90;;;;;;5083965;28;20040;-83
2022/03/27 07:39:52;;;;;;;39.47;12.93;;;7.00;99.90;;;;;;5076196;28;20052;-87
2022/03/27 07:42:17;;;;;;;41.03;13.20;;;7.00;99.90;;;;;;5076142;28;20406;-81
2022/03/27 07:44:44;;;;;;;40.92;14.10;;;7.10;99.90;;;;;;5089627;28;20072;-82
2022/03/27 07:47:09;;;;;;;41.20;13.02;;;7.10;99.90;;;;;;5073759;28;20044;-81
2022/03/27 07:49:35;;;;;;;41.65;14.07;;;7.10;99.90;;;;;;5080568;28;20047;-82
2022/03/27 07:52:05;;;;;;;45.45;14.07;;;7.20;99.90;;;;;;5069318;28;20071;-79
2022/03/27 07:54:31;;;;;;;35.22;12.60;;;7.20;99.90;;;;;;5091107;28;20040;-78
2022/03/27 07:56:56;;;;;;;42.63;14.38;;;7.20;99.90;;;;;;5071569;28;20062;-77
2022/03/27 07:59:22;;;;;;;41.22;14.30;;;7.30;99.90;;;;;;5091163;28;20032;-78
2022/03/27 08:01:48;;;;;;;42.72;13.60;;;7.30;99.90;;;;;;5059003;28;20131;-78
2022/03/27 08:04:14;;;;;;;40.80;12.77;;;7.30;99.90;;;;;;5090007;28;20333;-78
2022/03/27 08:06:40;;;;;;;41.90;13.15;;;7.30;99.90;;;;;;5075447;28;20503;-78
2022/03/27 08:09:06;;;;;;;39.40;13.27;;;7.40;99.90;;;;;;5072367;28;20040;-79
2022/03/27 08:11:33;;;;;;;40.83;13.05;;;7.50;99.90;;;;;;5083237;28;20040;-78
2022/03/27 08:13:59;;;;;;;48.05;13.45;;;7.50;99.90;;;;;;5073015;28;20062;-78
2022/03/27 08:16:26;;;;;;;44.65;13.15;;;7.60;99.90;;;;;;5089522;28;20437;-78
2022/03/27 08:18:52;;;;;;;47.47;14.10;;;7.60;99.90;;;;;;5089787;28;20127;-78
2022/03/27 08:21:17;;;;;;;42.42;13.88;;;7.70;99.90;;;;;;5090235;28;20131;-78
2022/03/27 08:23:43;;;;;;;47.00;13.23;;;7.70;99.90;;;;;;5087697;28;20040;-78
2022/03/27 08:28:53;;;;;;;49.00;14.68;;;7.80;99.90;;;;;;5089096;28;20085;-78
2022/03/27 08:31:19;;;;;;;47.65;12.85;;;7.80;99.90;;;;;;5089217;28;20048;-78
2022/03/27 08:33:46;;;;;;;48.78;13.82;;;7.90;99.90;;;;;;5085412;28;20055;-78
2022/03/27 08:36:12;;;;;;;51.13;14.20;;;7.90;99.90;;;;;;5082645;28;20040;-78
2022/03/27 08:38:38;;;;;;;43.97;13.57;;;7.90;99.90;;;;;;5071534;28;20044;-78
2022/03/27 08:41:05;;;;;;;42.47;13.00;;;8.00;99.90;;;;;;5089589;28;20551;-78
2022/03/27 08:43:34;;;;;;;48.17;13.57;;;8.00;99.90;;;;;;5088538;28;20049;-78
2022/03/27 08:46:00;;;;;;;45.30;13.85;;;8.00;99.90;;;;;;5074013;28;20061;-78
2022/03/27 08:48:30;;;;;;;43.77;14.93;;;8.00;99.90;;;;;;5089799;28;20115;-79
2022/03/27 08:51:06;;;;;;;52.97;13.68;;;8.00;99.90;;;;;;5089803;28;20298;-78
2022/03/27 08:53:51;;;;;;;44.65;13.85;;;8.10;99.90;;;;;;5067357;28;20051;-79
2022/03/27 08:56:18;;;;;;;49.58;13.98;;;8.20;99.90;;;;;;5058527;28;20062;-78
2022/03/27 08:58:45;;;;;;;45.25;14.23;;;8.30;99.90;;;;;;5082507;28;20358;-78
2022/03/27 09:01:11;;;;;;;43.05;13.43;;;8.40;99.90;;;;;;5077419;28;20050;-78
2022/03/27 09:03:37;;;;;;;43.92;12.90;;;8.50;99.90;;;;;;5088004;28;20170;-78
2022/03/27 09:06:06;;;;;;;47.40;12.93;;;8.50;99.90;;;;;;5070440;28;20036;-78
2022/03/27 09:08:32;;;;;;;42.83;13.35;;;8.70;99.90;;;;;;5070961;28;20066;-78
2022/03/27 09:10:58;;;;;;;37.75;12.82;;;8.70;99.90;;;;;;5089665;28;20040;-78
2022/03/27 09:13:25;;;;;;;38.13;12.20;;;8.80;99.90;;;;;;5088521;28;20036;-81
2022/03/27 09:16:05;;;;;;;39.97;12.07;;;8.80;99.90;;;;;;5079050;28;20052;-78
2022/03/27 09:18:55;;;;;;;44.05;13.52;;;8.80;99.90;;;;;;5060425;28;20133;-80
2022/03/27 09:21:26;;;;;;;40.97;12.43;;;9.00;99.90;;;;;;5090206;28;20173;-84
2022/03/27 09:24:00;;;;;;;42.40;13.90;;;9.10;99.90;;;;;;5092376;28;20043;-83
2022/03/27 09:26:27;;;;;;;44.33;13.27;;;9.10;99.90;;;;;;5088249;28;20092;-82
2022/03/27 09:29:04;;;;;;;40.08;12.60;;;9.20;99.90;;;;;;5088001;28;20265;-82
2022/03/27 09:31:30;;;;;;;45.70;12.25;;;9.30;99.90;;;;;;5088768;28;20130;-84
2022/03/27 09:34:00;;;;;;;41.25;12.85;;;9.40;99.90;;;;;;5066238;28;20194;-84
2022/03/27 09:36:34;;;;;;;40.80;12.40;;;9.50;99.90;;;;;;5070958;28;20052;-82
2022/03/27 09:39:09;;;;;;;40.38;12.50;;;9.60;99.90;;;;;;5089073;28;20044;-83
2022/03/27 09:41:37;;;;;;;45.05;13.82;;;9.70;99.90;;;;;;5082335;28;20113;-82
2022/03/27 09:44:23;;;;;;;43.72;13.02;;;9.80;99.90;;;;;;5068791;28;20051;-85
2022/03/27 09:46:52;;;;;;;45.38;12.63;;;9.90;99.90;;;;;;5063188;28;20064;-83
2022/03/27 09:49:25;;;;;;;39.22;13.07;;;9.90;99.90;;;;;;5080053;28;20036;-83
2022/03/27 09:51:57;;;;;;;51.22;14.00;;;10.00;99.90;;;;;;5070808;28;20040;-86
2022/03/27 09:54:24;;;;;;;44.10;12.57;;;10.00;99.90;;;;;;5088335;28;20037;-81
2022/03/27 09:56:50;;;;;;;42.65;13.20;;;10.10;99.90;;;;;;5081751;28;20402;-83
2022/03/27 09:59:25;;;;;;;47.45;13.68;;;10.10;99.90;;;;;;5069883;28;20040;-84
2022/03/27 10:01:51;;;;;;;42.53;13.35;;;10.20;99.90;;;;;;5084435;28;20126;-81
2022/03/27 10:04:17;;;;;;;41.60;13.93;;;10.20;99.90;;;;;;5088175;28;20119;-80
2022/03/27 10:06:43;;;;;;;39.60;12.00;;;10.20;99.90;;;;;;5069421;28;20133;-80
2022/03/27 10:09:10;;;;;;;37.08;12.93;;;10.20;99.90;;;;;;5087218;28;20447;-80
2022/03/27 10:11:40;;;;;;;40.60;12.32;;;10.20;99.90;;;;;;5067186;28;20052;-80
2022/03/27 10:14:07;;;;;;;40.10;12.15;;;10.30;99.90;;;;;;5087191;28;20063;-82
2022/03/27 10:16:43;;;;;;;40.28;11.77;;;10.40;99.90;;;;;;5087417;28;20111;-81
2022/03/27 10:19:18;;;;;;;39.50;12.02;;;10.50;99.90;;;;;;5083899;28;20079;-82
2022/03/27 10:21:46;;;;;;;41.15;13.05;;;10.50;99.90;;;;;;5087817;28;20082;-81
2022/03/27 10:24:14;;;;;;;40.97;13.20;;;10.60;99.90;;;;;;5069922;28;20044;-86
2022/03/27 10:26:41;;;;;;;43.95;13.85;;;10.60;99.90;;;;;;5071064;28;20048;-84
2022/03/27 10:29:08;;;;;;;;;;;10.60;99.90;;;;;;5069585;28;20566;-85
2022/03/27 10:31:34;;;;;;;40.42;13.55;;;10.70;99.90;;;;;;5086384;28;19920;-81
2022/03/27 10:34:01;;;;;;;38.58;11.90;;;10.70;99.90;;;;;;5066761;28;20052;-81
2022/03/27 10:36:42;;;;;;;;;;;10.70;99.90;;;;;;5069853;28;20439;-79
2022/03/27 10:39:25;;;;;;;35.33;12.18;;;10.80;99.90;;;;;;5079295;28;19946;-79
2022/03/27 10:42:11;;;;;;;40.63;13.50;;;10.80;99.90;;;;;;5084816;28;20075;-80
2022/03/27 10:45:14;;;;;;;36.90;12.88;;;10.90;99.90;;;;;;5087849;28;20074;-79
2022/03/27 10:47:41;;;;;;;38.78;12.35;;;10.90;99.90;;;;;;5063499;28;20056;-78
2022/03/27 10:50:08;;;;;;;34.13;11.63;;;10.90;99.90;;;;;;5086734;28;20174;-83
2022/03/27 10:52:36;;;;;;;42.88;12.88;;;11.00;99.90;;;;;;5084488;28;20081;-84
2022/03/27 10:55:11;;;;;;;38.13;12.60;;;11.00;99.90;;;;;;5065707;28;20127;-84
2022/03/27 10:57:42;;;;;;;35.08;11.75;;;11.10;99.90;;;;;;5088901;28;20087;-84
2022/03/27 11:00:11;;;;;;;34.22;12.32;;;11.10;99.90;;;;;;5087764;28;20223;-83
2022/03/27 11:02:51;;;;;;;37.42;11.75;;;11.20;99.90;;;;;;5088042;28;20047;-78
2022/03/27 11:05:31;;;;;;;37.72;11.60;;;11.30;99.90;;;;;;5087716;28;20123;-79
2022/03/27 11:08:18;;;;;;;38.00;12.32;;;11.30;99.90;;;;;;5086677;28;20061;-83
2022/03/27 11:10:50;;;;;;;31.25;11.30;;;11.40;99.90;;;;;;5087745;28;20055;-80
2022/03/27 11:13:39;;;;;;;32.38;10.88;;;11.40;99.90;;;;;;5087960;28;20043;-78
2022/03/27 11:16:10;;;;;;;35.00;11.57;;;11.50;99.90;;;;;;5086709;28;20423;-78
2022/03/27 11:18:44;;;;;;;33.65;10.25;;;11.50;99.90;;;;;;5067952;28;20569;-76
2022/03/27 11:21:12;;;;;;;38.15;12.73;;;11.50;99.90;;;;;;5059770;28;20040;-77
2022/03/27 11:23:44;;;;;;;;;;;11.60;99.90;;;;;;5073008;28;20040;-77
2022/03/27 11:26:30;;;;;;;32.80;11.00;;;11.60;99.90;;;;;;5070099;28;19920;-76
2022/03/27 11:28:59;;;;;;;33.40;11.02;;;11.70;99.90;;;;;;5087984;28;20086;-79
2022/03/27 11:31:25;;;;;;;35.85;10.82;;;11.80;99.90;;;;;;5067203;28;20376;-83
2022/03/27 11:34:12;;;;;;;34.75;12.25;;;11.90;99.90;;;;;;5089097;28;20072;-78
2022/03/27 11:36:45;;;;;;;;;;;12.00;99.90;;;;;;5091573;28;20040;-78
2022/03/27 11:41:42;;;;;;;31.25;11.10;;;12.00;99.90;;;;;;5104668;27;20894;-75
2022/03/27 11:47:11;;;;;;;32.83;9.95;;;12.10;99.90;;;;;;5082552;28;20052;-74
2022/03/27 11:49:39;;;;;;;38.17;11.15;;;12.20;99.90;;;;;;5085365;28;20056;-74
2022/03/27 11:52:16;;;;;;;31.67;12.07;;;12.30;99.90;;;;;;5118420;28;20040;-75
2022/03/27 11:54:42;;;;;;;38.70;12.05;;;12.30;99.90;;;;;;5085080;28;20117;-74
2022/03/27 11:57:09;;;;;;;31.05;11.48;;;12.30;99.90;;;;;;5083562;28;20519;-74
2022/03/27 11:59:49;;;;;;;27.92;10.90;;;12.30;99.90;;;;;;5085302;28;20047;-72
2022/03/27 12:02:16;;;;;;;29.40;10.40;;;12.40;99.90;;;;;;5082926;28;20040;-70
2022/03/27 12:04:53;;;;;;;36.80;11.15;;;12.40;99.90;;;;;;5083090;28;20047;-72
2022/03/27 12:07:19;;;;;;;35.05;11.40;;;12.60;99.90;;;;;;5083102;28;20076;-72
2022/03/27 12:09:58;;;;;;;30.95;10.15;;;12.60;99.90;;;;;;5084065;28;20036;-72
2022/03/27 12:12:24;;;;;;;33.55;11.00;;;12.70;99.90;;;;;;5086611;28;20090;-72
2022/03/27 12:14:51;;;;;;;33.35;10.35;;;12.70;99.90;;;;;;5084218;28;20036;-72
2022/03/27 12:17:17;;;;;;;36.95;11.30;;;12.70;99.90;;;;;;5085125;28;20032;-72
2022/03/27 12:20:00;;;;;;;29.45;10.10;;;12.80;99.90;;;;;;5084312;28;20041;-72
2022/03/27 12:22:38;;;;;;;29.35;10.25;;;12.90;99.90;;;;;;5084732;28;20040;-72
2022/03/27 12:25:11;;;;;;;32.60;10.20;;;13.10;99.90;;;;;;5084927;28;20442;-72
2022/03/27 12:30:37;;;;;;;32.92;10.00;;;13.20;99.20;;;;;;5085387;28;20052;-72
2022/03/27 12:33:04;;;;;;;28.52;9.13;;;13.20;99.50;;;;;;5084170;28;20040;-72
2022/03/27 12:35:32;;;;;;;30.02;11.07;;;13.20;99.90;;;;;;5084900;28;20079;-72
2022/03/27 12:37:58;;;;;;;34.70;10.68;;;13.30;99.90;;;;;;5082842;28;20045;-72
2022/03/27 12:40:25;;;;;;;32.03;10.63;;;13.30;99.80;;;;;;5084800;28;20110;-72
2022/03/27 12:43:08;;;;;;;28.35;10.77;;;13.40;99.20;;;;;;5083640;28;20072;-72
2022/03/27 12:45:36;;;;;;;28.83;10.27;;;13.40;99.90;;;;;;5083485;28;20052;-72
2022/03/27 12:48:13;;;;;;;31.05;9.93;;;13.50;97.90;;;;;;5084488;28;20072;-72
2022/03/27 12:50:42;;;;;;;27.27;9.55;;;13.50;96.20;;;;;;5080248;28;20048;-72
2022/03/27 12:53:11;;;;;;;29.33;9.27;;;13.50;93.50;;;;;;5069763;28;20462;-71
2022/03/27 12:55:49;;;;;;;28.00;9.43;;;13.50;95.70;;;;;;5070416;28;20036;-72
2022/03/27 12:58:17;;;;;;;32.10;9.95;;;13.60;95.10;;;;;;5071642;28;20041;-72
2022/03/27 13:00:44;;;;;;;31.58;10.25;;;13.60;95.30;;;;;;5069984;28;20051;-72